sensor_id;sensor_type;location;lat;lon;timestamp;P1;durP1;ratioP1;P2;durP2;ratioP2
39822;SDS011;25499;53.958;10.970;2023-04-03T06:01:10;6.05;;;3.50;;
39822;SDS011;25499;53.958;10.970;2023-04-03T06:03:36;7.78;;;2.70;;
39822;SDS011;25499;53.958;10.970;2023-04-03T06:06:02;5.65;;;1.70;;
39822;SDS011;25499;53.958;10.970;2023-04-03T06:13:27;5.43;;;1.70;;
39822;SDS011;25499;53.958;10.970;2023-04-03T06:15:53;4.95;;;1.52;;
39822;SDS011;25499;53.958;10.970;2023-04-03T06:18:19;3.92;;;1.15;;
39822;SDS011;25499;53.958;10.970;2023-04-03T06:20:45;4.65;;;1.00;;
39822;SDS011;25499;53.958;10.970;2023-04-03T06:23:10;3.22;;;1.55;;
39822;SDS011;25499;53.958;10.970;2023-04-03T06:25:36;3.13;;;1.20;;
39822;SDS011;25499;53.958;10.970;2023-04-03T06:28:02;6.35;;;1.23;;
39822;SDS011;25499;53.958;10.970;2023-04-03T06:30:27;2.60;;;0.98;;
39822;SDS011;25499;53.958;10.970;2023-04-03T06:32:53;4.85;;;0.90;;
39822;SDS011;25499;53.958;10.970;2023-04-03T06:35:18;3.85;;;1.00;;
39822;SDS011;25499;53.958;10.970;2023-04-03T06:37:44;4.80;;;0.90;;
39822;SDS011;25499;53.958;10.970;2023-04-03T06:40:14;6.18;;;0.98;;
39822;SDS011;25499;53.958;10.970;2023-04-03T06:42:46;4.45;;;1.63;;
39822;SDS011;25499;53.958;10.970;2023-04-03T06:45:11;9.70;;;2.20;;
39822;SDS011;25499;53.958;10.970;2023-04-03T06:47:38;6.35;;;2.22;;
39822;SDS011;25499;53.958;10.970;2023-04-03T06:50:04;10.57;;;3.72;;
39822;SDS011;25499;53.958;10.970;2023-04-03T06:52:44;13.73;;;5.38;;
39822;SDS011;25499;53.958;10.970;2023-04-03T06:55:13;8.60;;;2.20;;
39822;SDS011;25499;53.958;10.970;2023-04-03T06:57:38;6.32;;;1.58;;
39822;SDS011;25499;53.958;10.970;2023-04-03T07:00:05;5.63;;;1.65;;
39822;SDS011;25499;53.958;10.970;2023-04-03T07:02:33;3.10;;;1.00;;
39822;SDS011;25499;53.958;10.970;2023-04-03T07:04:59;3.88;;;0.90;;
39822;SDS011;25499;53.958;10.970;2023-04-03T07:07:25;2.83;;;0.80;;
39822;SDS011;25499;53.958;10.970;2023-04-03T07:09:50;6.50;;;1.00;;
39822;SDS011;25499;53.958;10.970;2023-04-03T07:12:19;5.68;;;0.65;;
39822;SDS011;25499;53.958;10.970;2023-04-03T07:14:45;3.47;;;0.82;;
39822;SDS011;25499;53.958;10.970;2023-04-03T07:17:11;5.15;;;0.80;;
39822;SDS011;25499;53.958;10.970;2023-04-03T07:19:36;3.05;;;0.77;;
39822;SDS011;25499;53.958;10.970;2023-04-03T07:22:02;3.78;;;0.80;;
39822;SDS011;25499;53.958;10.970;2023-04-03T07:24:28;3.03;;;0.80;;
39822;SDS011;25499;53.958;10.970;2023-04-03T07:26:53;2.92;;;0.50;;
39822;SDS011;25499;53.958;10.970;2023-04-03T07:29:19;2.35;;;0.55;;
39822;SDS011;25499;53.958;10.970;2023-04-03T07:31:46;3.75;;;0.93;;
39822;SDS011;25499;53.958;10.970;2023-04-03T07:34:12;5.13;;;0.77;;
39822;SDS011;25499;53.958;10.970;2023-04-03T07:36:38;5.07;;;0.65;;
39822;SDS011;25499;53.958;10.970;2023-04-03T07:39:03;3.80;;;0.80;;
39822;SDS011;25499;53.958;10.970;2023-04-03T07:41:29;3.78;;;0.73;;
39822;SDS011;25499;53.958;10.970;2023-04-03T07:43:55;6.18;;;0.90;;
39822;SDS011;25499;53.958;10.970;2023-04-03T07:46:21;6.38;;;0.70;;
39822;SDS011;25499;53.958;10.970;2023-04-03T07:48:48;6.22;;;0.68;;
39822;SDS011;25499;53.958;10.970;2023-04-03T07:51:13;2.97;;;0.65;;
39822;SDS011;25499;53.958;10.970;2023-04-03T07:53:39;5.00;;;1.80;;
39822;SDS011;25499;53.958;10.970;2023-04-03T07:56:05;3.97;;;0.68;;
39822;SDS011;25499;53.958;10.970;2023-04-03T07:58:31;3.63;;;0.70;;
39822;SDS011;25499;53.958;10.970;2023-04-03T08:00:57;2.70;;;0.60;;
39822;SDS011;25499;53.958;10.970;2023-04-03T08:03:24;3.70;;;0.63;;
39822;SDS011;25499;53.958;10.970;2023-04-03T08:05:49;1.40;;;0.40;;
39822;SDS011;25499;53.958;10.970;2023-04-03T08:10:48;5.55;;;0.80;;
39822;SDS011;25499;53.958;10.970;2023-04-03T08:13:15;5.10;;;0.60;;
39822;SDS011;25499;53.958;10.970;2023-04-03T08:15:41;5.00;;;0.55;;
39822;SDS011;25499;53.958;10.970;2023-04-03T08:18:08;2.80;;;0.65;;
39822;SDS011;25499;53.958;10.970;2023-04-03T08:20:37;2.30;;;0.60;;
39822;SDS011;25499;53.958;10.970;2023-04-03T08:23:03;5.38;;;0.70;;
39822;SDS011;25499;53.958;10.970;2023-04-03T08:25:29;3.58;;;0.70;;
39822;SDS011;25499;53.958;10.970;2023-04-03T08:27:55;2.22;;;0.77;;
39822;SDS011;25499;53.958;10.970;2023-04-03T08:30:21;3.40;;;0.90;;
39822;SDS011;25499;53.958;10.970;2023-04-03T08:32:47;2.42;;;0.50;;
39822;SDS011;25499;53.958;10.970;2023-04-03T08:35:13;4.13;;;0.80;;
39822;SDS011;25499;53.958;10.970;2023-04-03T08:37:47;4.40;;;0.82;;
39822;SDS011;25499;53.958;10.970;2023-04-03T08:41:32;2.75;;;0.75;;
39822;SDS011;25499;53.958;10.970;2023-04-03T08:46:33;2.58;;;0.65;;
39822;SDS011;25499;53.958;10.970;2023-04-03T08:51:49;3.17;;;0.80;;
39822;SDS011;25499;53.958;10.970;2023-04-03T08:54:27;3.58;;;0.57;;
39822;SDS011;25499;53.958;10.970;2023-04-03T08:57:03;2.45;;;0.60;;
39822;SDS011;25499;53.958;10.970;2023-04-03T08:59:33;3.50;;;0.70;;
39822;SDS011;25499;53.958;10.970;2023-04-03T09:02:02;2.50;;;0.55;;
39822;SDS011;25499;53.958;10.970;2023-04-03T09:04:37;3.97;;;0.75;;
39822;SDS011;25499;53.958;10.970;2023-04-03T09:07:14;4.03;;;0.60;;
39822;SDS011;25499;53.958;10.970;2023-04-03T09:09:47;3.83;;;0.70;;
39822;SDS011;25499;53.958;10.970;2023-04-03T09:12:21;4.45;;;2.17;;
39822;SDS011;25499;53.958;10.970;2023-04-03T09:20:44;2.63;;;0.60;;
39822;SDS011;25499;53.958;10.970;2023-04-03T09:25:46;5.57;;;0.77;;
39822;SDS011;25499;53.958;10.970;2023-04-03T09:28:12;2.45;;;0.65;;
39822;SDS011;25499;53.958;10.970;2023-04-03T09:30:38;6.38;;;0.68;;
39822;SDS011;25499;53.958;10.970;2023-04-03T09:33:05;2.28;;;0.73;;
39822;SDS011;25499;53.958;10.970;2023-04-03T09:35:32;2.25;;;0.70;;
39822;SDS011;25499;53.958;10.970;2023-04-03T09:40:41;2.47;;;0.60;;
39822;SDS011;25499;53.958;10.970;2023-04-03T09:45:49;3.38;;;0.68;;
39822;SDS011;25499;53.958;10.970;2023-04-03T09:48:24;3.08;;;0.65;;
39822;SDS011;25499;53.958;10.970;2023-04-03T09:56:02;3.88;;;0.70;;
39822;SDS011;25499;53.958;10.970;2023-04-03T09:58:50;4.15;;;0.90;;
39822;SDS011;25499;53.958;10.970;2023-04-03T10:04:28;3.70;;;0.60;;
39822;SDS011;25499;53.958;10.970;2023-04-03T10:06:48;5.22;;;0.82;;
39822;SDS011;25499;53.958;10.970;2023-04-03T10:09:21;1.77;;;0.60;;
39822;SDS011;25499;53.958;10.970;2023-04-03T10:12:06;3.85;;;0.75;;
39822;SDS011;25499;53.958;10.970;2023-04-03T10:14:53;1.77;;;0.70;;
39822;SDS011;25499;53.958;10.970;2023-04-03T10:17:37;3.00;;;0.50;;
39822;SDS011;25499;53.958;10.970;2023-04-03T10:20:23;4.00;;;0.77;;
39822;SDS011;25499;53.958;10.970;2023-04-03T10:26:10;2.75;;;1.00;;
39822;SDS011;25499;53.958;10.970;2023-04-03T10:47:32;3.42;;;0.70;;
39822;SDS011;25499;53.958;10.970;2023-04-03T10:50:11;2.60;;;0.50;;
39822;SDS011;25499;53.958;10.970;2023-04-03T10:52:43;2.20;;;0.50;;
39822;SDS011;25499;53.958;10.970;2023-04-03T10:57:52;2.33;;;0.47;;
39822;SDS011;25499;53.958;10.970;2023-04-03T11:00:42;5.38;;;0.98;;
39822;SDS011;25499;53.958;10.970;2023-04-03T11:03:14;1.35;;;0.57;;
39822;SDS011;25499;53.958;10.970;2023-04-03T11:05:52;1.73;;;0.50;;
39822;SDS011;25499;53.958;10.970;2023-04-03T11:08:26;3.40;;;0.68;;
39822;SDS011;25499;53.958;10.970;2023-04-03T11:17:19;1.52;;;0.60;;
39822;SDS011;25499;53.958;10.970;2023-04-03T11:19:57;3.95;;;0.80;;
39822;SDS011;25499;53.958;10.970;2023-04-03T11:25:30;0.98;;;0.50;;
39822;SDS011;25499;53.958;10.970;2023-04-03T11:27:59;0.70;;;0.50;;
39822;SDS011;25499;53.958;10.970;2023-04-03T11:36:03;2.15;;;0.70;;
39822;SDS011;25499;53.958;10.970;2023-04-03T12:05:53;3.00;;;0.77;;
39822;SDS011;25499;53.958;10.970;2023-04-03T12:16:23;2.88;;;0.70;;
39822;SDS011;25499;53.958;10.970;2023-04-03T12:26:38;1.38;;;0.68;;
39822;SDS011;25499;53.958;10.970;2023-04-03T12:40:02;2.45;;;0.80;;
39822;SDS011;25499;53.958;10.970;2023-04-03T12:45:29;2.20;;;0.80;;
39822;SDS011;25499;53.958;10.970;2023-04-03T12:48:17;3.25;;;0.80;;
39822;SDS011;25499;53.958;10.970;2023-04-03T12:50:47;2.38;;;0.82;;
39822;SDS011;25499;53.958;10.970;2023-04-03T12:53:35;2.47;;;0.73;;
39822;SDS011;25499;53.958;10.970;2023-04-03T13:01:55;3.25;;;0.80;;
39822;SDS011;25499;53.958;10.970;2023-04-03T13:04:22;3.83;;;1.23;;
39822;SDS011;25499;53.958;10.970;2023-04-03T13:06:49;2.55;;;0.80;;
39822;SDS011;25499;53.958;10.970;2023-04-03T13:09:25;3.90;;;0.75;;
39822;SDS011;25499;53.958;10.970;2023-04-03T13:11:57;4.10;;;0.80;;
39822;SDS011;25499;53.958;10.970;2023-04-03T13:14:24;1.95;;;0.60;;
39822;SDS011;25499;53.958;10.970;2023-04-03T13:16:57;3.78;;;0.90;;
39822;SDS011;25499;53.958;10.970;2023-04-03T13:19:25;4.72;;;0.77;;
39822;SDS011;25499;53.958;10.970;2023-04-03T13:22:19;7.63;;;0.80;;
39822;SDS011;25499;53.958;10.970;2023-04-03T13:24:58;3.17;;;0.70;;
39822;SDS011;25499;53.958;10.970;2023-04-03T13:27:26;3.55;;;0.90;;
39822;SDS011;25499;53.958;10.970;2023-04-03T13:29:54;3.70;;;0.90;;
39822;SDS011;25499;53.958;10.970;2023-04-03T13:32:23;1.65;;;0.80;;
39822;SDS011;25499;53.958;10.970;2023-04-03T13:34:51;6.15;;;0.90;;
39822;SDS011;25499;53.958;10.970;2023-04-03T13:40:08;5.13;;;0.90;;
39822;SDS011;25499;53.958;10.970;2023-04-03T13:42:38;2.92;;;0.68;;
39822;SDS011;25499;53.958;10.970;2023-04-03T13:45:21;1.80;;;0.70;;
39822;SDS011;25499;53.958;10.970;2023-04-03T13:47:49;4.35;;;0.75;;
39822;SDS011;25499;53.958;10.970;2023-04-03T13:50:19;4.15;;;1.05;;
39822;SDS011;25499;53.958;10.970;2023-04-03T13:55:27;3.00;;;0.60;;
39822;SDS011;25499;53.958;10.970;2023-04-03T14:02:53;2.30;;;0.55;;
39822;SDS011;25499;53.958;10.970;2023-04-03T14:05:21;6.95;;;0.85;;
39822;SDS011;25499;53.958;10.970;2023-04-03T14:07:48;2.50;;;0.60;;
39822;SDS011;25499;53.958;10.970;2023-04-03T14:10:14;1.80;;;0.70;;
39822;SDS011;25499;53.958;10.970;2023-04-03T14:12:39;3.30;;;0.60;;
39822;SDS011;25499;53.958;10.970;2023-04-03T14:15:28;4.90;;;0.90;;
39822;SDS011;25499;53.958;10.970;2023-04-03T14:17:53;4.00;;;0.80;;
39822;SDS011;25499;53.958;10.970;2023-04-03T14:20:21;3.00;;;0.85;;
39822;SDS011;25499;53.958;10.970;2023-04-03T14:22:48;4.75;;;1.05;;
39822;SDS011;25499;53.958;10.970;2023-04-03T14:25:14;5.13;;;0.90;;
39822;SDS011;25499;53.958;10.970;2023-04-03T14:27:42;3.33;;;0.63;;
39822;SDS011;25499;53.958;10.970;2023-04-03T14:30:13;1.77;;;0.73;;
39822;SDS011;25499;53.958;10.970;2023-04-03T14:32:45;3.42;;;0.82;;
39822;SDS011;25499;53.958;10.970;2023-04-03T14:35:12;2.95;;;0.80;;
39822;SDS011;25499;53.958;10.970;2023-04-03T14:37:38;4.38;;;0.60;;
39822;SDS011;25499;53.958;10.970;2023-04-03T14:40:04;2.85;;;0.77;;
39822;SDS011;25499;53.958;10.970;2023-04-03T14:42:32;6.38;;;0.80;;
39822;SDS011;25499;53.958;10.970;2023-04-03T14:45:00;3.92;;;0.75;;
39822;SDS011;25499;53.958;10.970;2023-04-03T14:47:28;3.17;;;0.70;;
39822;SDS011;25499;53.958;10.970;2023-04-03T14:49:55;3.22;;;1.30;;
39822;SDS011;25499;53.958;10.970;2023-04-03T14:54:48;1.90;;;1.13;;
39822;SDS011;25499;53.958;10.970;2023-04-03T14:57:15;3.75;;;0.80;;
39822;SDS011;25499;53.958;10.970;2023-04-03T14:59:42;5.57;;;0.90;;
39822;SDS011;25499;53.958;10.970;2023-04-03T15:04:51;4.55;;;0.70;;
39822;SDS011;25499;53.958;10.970;2023-04-03T15:07:17;4.25;;;0.80;;
39822;SDS011;25499;53.958;10.970;2023-04-03T15:09:43;3.80;;;0.75;;
39822;SDS011;25499;53.958;10.970;2023-04-03T15:12:09;3.55;;;0.80;;
39822;SDS011;25499;53.958;10.970;2023-04-03T15:14:35;3.85;;;0.80;;
39822;SDS011;25499;53.958;10.970;2023-04-03T15:17:01;2.88;;;0.60;;
39822;SDS011;25499;53.958;10.970;2023-04-03T15:19:27;3.65;;;0.75;;
39822;SDS011;25499;53.958;10.970;2023-04-03T15:21:53;3.13;;;0.70;;
39822;SDS011;25499;53.958;10.970;2023-04-03T15:24:18;1.88;;;0.52;;
39822;SDS011;25499;53.958;10.970;2023-04-03T15:26:44;2.85;;;0.70;;
39822;SDS011;25499;53.958;10.970;2023-04-03T15:29:09;1.42;;;0.60;;
39822;SDS011;25499;53.958;10.970;2023-04-03T15:31:35;3.05;;;0.80;;
39822;SDS011;25499;53.958;10.970;2023-04-03T15:34:01;2.70;;;1.00;;
39822;SDS011;25499;53.958;10.970;2023-04-03T15:36:27;2.33;;;0.80;;
39822;SDS011;25499;53.958;10.970;2023-04-03T15:38:53;3.22;;;0.75;;
39822;SDS011;25499;53.958;10.970;2023-04-03T15:41:18;4.93;;;0.80;;
39822;SDS011;25499;53.958;10.970;2023-04-03T15:43:43;2.72;;;0.73;;
39822;SDS011;25499;53.958;10.970;2023-04-03T15:46:09;2.55;;;0.73;;
39822;SDS011;25499;53.958;10.970;2023-04-03T15:48:35;3.35;;;0.70;;
39822;SDS011;25499;53.958;10.970;2023-04-03T15:51:01;3.95;;;0.80;;
39822;SDS011;25499;53.958;10.970;2023-04-03T15:53:27;1.48;;;0.63;;
39822;SDS011;25499;53.958;10.970;2023-04-03T15:55:52;1.55;;;0.60;;
39822;SDS011;25499;53.958;10.970;2023-04-03T15:58:18;3.53;;;0.90;;
39822;SDS011;25499;53.958;10.970;2023-04-03T16:00:43;3.35;;;1.00;;
39822;SDS011;25499;53.958;10.970;2023-04-03T16:03:12;3.42;;;0.80;;
39822;SDS011;25499;53.958;10.970;2023-04-03T16:05:41;2.25;;;0.80;;
39822;SDS011;25499;53.958;10.970;2023-04-03T16:08:07;3.83;;;1.80;;
39822;SDS011;25499;53.958;10.970;2023-04-03T16:10:34;3.65;;;1.17;;
39822;SDS011;25499;53.958;10.970;2023-04-03T16:13:01;3.10;;;0.90;;
39822;SDS011;25499;53.958;10.970;2023-04-03T16:15:26;5.53;;;2.42;;
39822;SDS011;25499;53.958;10.970;2023-04-03T16:17:52;6.28;;;2.35;;
39822;SDS011;25499;53.958;10.970;2023-04-03T16:20:19;2.85;;;1.27;;
39822;SDS011;25499;53.958;10.970;2023-04-03T16:22:46;12.40;;;4.45;;
39822;SDS011;25499;53.958;10.970;2023-04-03T16:25:12;7.43;;;3.47;;
39822;SDS011;25499;53.958;10.970;2023-04-03T16:27:38;9.93;;;5.40;;
39822;SDS011;25499;53.958;10.970;2023-04-03T16:30:04;10.25;;;5.85;;
39822;SDS011;25499;53.958;10.970;2023-04-03T16:32:30;9.10;;;5.00;;
39822;SDS011;25499;53.958;10.970;2023-04-03T16:34:57;8.13;;;3.90;;
39822;SDS011;25499;53.958;10.970;2023-04-03T16:37:23;5.30;;;1.80;;
39822;SDS011;25499;53.958;10.970;2023-04-03T16:39:49;2.65;;;0.80;;
39822;SDS011;25499;53.958;10.970;2023-04-03T16:42:14;5.03;;;1.95;;
39822;SDS011;25499;53.958;10.970;2023-04-03T16:44:40;5.05;;;0.80;;
39822;SDS011;25499;53.958;10.970;2023-04-03T16:47:06;5.82;;;1.30;;
39822;SDS011;25499;53.958;10.970;2023-04-03T16:49:32;3.97;;;1.00;;
39822;SDS011;25499;53.958;10.970;2023-04-03T16:52:02;3.83;;;0.60;;
39822;SDS011;25499;53.958;10.970;2023-04-03T16:54:30;2.35;;;0.85;;
39822;SDS011;25499;53.958;10.970;2023-04-03T16:56:56;2.60;;;1.05;;
39822;SDS011;25499;53.958;10.970;2023-04-03T16:59:24;5.75;;;1.15;;
39822;SDS011;25499;53.958;10.970;2023-04-03T17:01:49;5.28;;;1.02;;
39822;SDS011;25499;53.958;10.970;2023-04-03T17:04:17;4.75;;;0.90;;
39822;SDS011;25499;53.958;10.970;2023-04-03T17:06:42;2.70;;;0.93;;
39822;SDS011;25499;53.958;10.970;2023-04-03T17:09:08;2.80;;;0.70;;
39822;SDS011;25499;53.958;10.970;2023-04-03T17:11:34;1.83;;;0.52;;
39822;SDS011;25499;53.958;10.970;2023-04-03T17:14:00;4.22;;;0.85;;
39822;SDS011;25499;53.958;10.970;2023-04-03T17:16:26;3.70;;;0.47;;
39822;SDS011;25499;53.958;10.970;2023-04-03T17:18:52;2.65;;;0.68;;
39822;SDS011;25499;53.958;10.970;2023-04-03T17:21:20;3.08;;;0.95;;
39822;SDS011;25499;53.958;10.970;2023-04-03T17:23:48;4.05;;;0.98;;
39822;SDS011;25499;53.958;10.970;2023-04-03T17:26:17;4.35;;;0.73;;
39822;SDS011;25499;53.958;10.970;2023-04-03T17:28:43;3.17;;;0.75;;
39822;SDS011;25499;53.958;10.970;2023-04-03T17:31:10;4.63;;;0.65;;
39822;SDS011;25499;53.958;10.970;2023-04-03T17:33:35;1.25;;;0.47;;
39822;SDS011;25499;53.958;10.970;2023-04-03T17:36:02;3.65;;;0.60;;
39822;SDS011;25499;53.958;10.970;2023-04-03T17:38:29;5.95;;;0.80;;
39822;SDS011;25499;53.958;10.970;2023-04-03T17:43:26;2.00;;;0.60;;
39822;SDS011;25499;53.958;10.970;2023-04-03T17:45:58;5.78;;;0.73;;
39822;SDS011;25499;53.958;10.970;2023-04-03T17:48:30;5.43;;;1.08;;
39822;SDS011;25499;53.958;10.970;2023-04-03T17:50:56;4.50;;;0.63;;
39822;SDS011;25499;53.958;10.970;2023-04-03T17:53:22;1.55;;;0.60;;
39822;SDS011;25499;53.958;10.970;2023-04-03T17:55:47;2.63;;;0.90;;
39822;SDS011;25499;53.958;10.970;2023-04-03T17:58:13;3.67;;;1.65;;
39822;SDS011;25499;53.958;10.970;2023-04-03T18:00:38;2.95;;;1.55;;
39822;SDS011;25499;53.958;10.970;2023-04-03T18:03:04;6.60;;;2.00;;
39822;SDS011;25499;53.958;10.970;2023-04-03T18:05:29;4.97;;;1.40;;
39822;SDS011;25499;53.958;10.970;2023-04-03T18:07:55;6.45;;;1.20;;
39822;SDS011;25499;53.958;10.970;2023-04-03T18:10:22;3.25;;;1.42;;
39822;SDS011;25499;53.958;10.970;2023-04-03T18:12:48;4.53;;;1.42;;
39822;SDS011;25499;53.958;10.970;2023-04-03T18:15:17;5.22;;;1.50;;
39822;SDS011;25499;53.958;10.970;2023-04-03T18:17:42;2.53;;;1.80;;
39822;SDS011;25499;53.958;10.970;2023-04-03T18:20:09;5.78;;;2.20;;
39822;SDS011;25499;53.958;10.970;2023-04-03T18:22:37;3.05;;;1.60;;
39822;SDS011;25499;53.958;10.970;2023-04-03T18:25:02;5.53;;;1.90;;
39822;SDS011;25499;53.958;10.970;2023-04-03T18:27:28;6.15;;;2.08;;
39822;SDS011;25499;53.958;10.970;2023-04-03T18:29:56;4.97;;;2.00;;
39822;SDS011;25499;53.958;10.970;2023-04-03T18:32:26;3.70;;;1.58;;
39822;SDS011;25499;53.958;10.970;2023-04-03T18:34:51;2.40;;;1.50;;
39822;SDS011;25499;53.958;10.970;2023-04-03T18:39:47;2.35;;;1.48;;
39822;SDS011;25499;53.958;10.970;2023-04-03T18:42:14;4.07;;;1.60;;
39822;SDS011;25499;53.958;10.970;2023-04-03T18:44:52;3.17;;;1.83;;
39822;SDS011;25499;53.958;10.970;2023-04-03T18:49:47;12.85;;;7.68;;
39822;SDS011;25499;53.958;10.970;2023-04-03T18:52:13;10.60;;;7.20;;
39822;SDS011;25499;53.958;10.970;2023-04-03T18:54:38;5.38;;;2.72;;
39822;SDS011;25499;53.958;10.970;2023-04-03T18:57:05;8.43;;;3.35;;
39822;SDS011;25499;53.958;10.970;2023-04-03T18:59:30;12.85;;;5.30;;
39822;SDS011;25499;53.958;10.970;2023-04-03T19:01:56;10.10;;;5.25;;
39822;SDS011;25499;53.958;10.970;2023-04-03T19:04:22;8.48;;;4.03;;
39822;SDS011;25499;53.958;10.970;2023-04-03T19:06:48;8.63;;;3.80;;
39822;SDS011;25499;53.958;10.970;2023-04-03T19:09:17;6.07;;;3.22;;
39822;SDS011;25499;53.958;10.970;2023-04-03T19:11:43;9.93;;;6.43;;
39822;SDS011;25499;53.958;10.970;2023-04-03T19:14:09;7.50;;;5.47;;
39822;SDS011;25499;53.958;10.970;2023-04-03T19:16:35;8.07;;;5.55;;
39822;SDS011;25499;53.958;10.970;2023-04-03T19:19:00;5.82;;;4.10;;
39822;SDS011;25499;53.958;10.970;2023-04-03T19:21:27;10.45;;;4.90;;
39822;SDS011;25499;53.958;10.970;2023-04-03T19:23:52;10.02;;;5.40;;
39822;SDS011;25499;53.958;10.970;2023-04-03T19:26:19;6.72;;;3.53;;
39822;SDS011;25499;53.958;10.970;2023-04-03T19:28:45;3.92;;;1.67;;
39822;SDS011;25499;53.958;10.970;2023-04-03T19:31:14;3.63;;;1.77;;
39822;SDS011;25499;53.958;10.970;2023-04-03T19:33:42;4.43;;;1.60;;
39822;SDS011;25499;53.958;10.970;2023-04-03T19:36:09;5.07;;;1.10;;
39822;SDS011;25499;53.958;10.970;2023-04-03T19:38:41;2.95;;;1.50;;
39822;SDS011;25499;53.958;10.970;2023-04-03T19:41:09;6.78;;;2.80;;
39822;SDS011;25499;53.958;10.970;2023-04-03T19:43:37;7.75;;;3.05;;
39822;SDS011;25499;53.958;10.970;2023-04-03T19:46:03;6.03;;;1.90;;
39822;SDS011;25499;53.958;10.970;2023-04-03T19:48:30;4.95;;;2.50;;
39822;SDS011;25499;53.958;10.970;2023-04-03T19:50:56;5.10;;;1.83;;
39822;SDS011;25499;53.958;10.970;2023-04-03T19:53:22;2.92;;;1.15;;
39822;SDS011;25499;53.958;10.970;2023-04-03T19:58:22;6.30;;;2.42;;
39822;SDS011;25499;53.958;10.970;2023-04-03T20:00:48;2.83;;;1.45;;
39822;SDS011;25499;53.958;10.970;2023-04-03T20:03:14;9.13;;;5.72;;
39822;SDS011;25499;53.958;10.970;2023-04-03T20:05:40;10.05;;;5.43;;
